createdAt,value
2018-02-25T00:00:00.780Z,48.56
2018-02-25T00:02:28.883Z,48.81
2018-02-25T00:04:57.001Z,48.84
2018-02-25T00:07:25.149Z,49.06
2018-02-25T00:09:53.273Z,49.24
2018-02-25T00:12:21.367Z,49.11
2018-02-25T00:14:49.485Z,48.00
2018-02-25T00:17:17.606Z,48.37
2018-02-25T00:19:45.709Z,49.04
2018-02-25T00:22:31.540Z,48.61
2018-02-25T00:24:59.657Z,48.96
2018-02-25T00:27:27.785Z,48.97
2018-02-25T00:29:55.886Z,48.73
2018-02-25T00:32:24.907Z,48.88
2018-02-25T00:34:53.026Z,48.86
2018-02-25T00:37:21.149Z,48.85
2018-02-25T00:39:49.268Z,49.16
2018-02-25T00:42:17.398Z,49.51
2018-02-25T00:44:45.516Z,48.88
2018-02-25T00:47:13.698Z,48.84
2018-02-25T00:49:41.739Z,49.13
2018-02-25T00:52:09.890Z,49.22
2018-02-25T00:54:38.010Z,49.46
2018-02-25T00:57:06.140Z,49.73
2018-02-25T00:59:34.255Z,49.52
2018-02-25T01:02:02.402Z,49.49
2018-02-25T01:04:30.514Z,50.08
2018-02-25T01:06:58.627Z,49.64
2018-02-25T01:09:26.720Z,49.80
2018-02-25T01:11:54.832Z,49.49
2018-02-25T01:14:22.948Z,49.58
2018-02-25T01:16:51.050Z,49.36
2018-02-25T01:19:19.178Z,49.40
2018-02-25T01:21:47.310Z,49.91
2018-02-25T01:24:15.440Z,49.63
2018-02-25T01:26:43.582Z,49.91
2018-02-25T01:29:11.675Z,49.80
2018-02-25T01:31:39.770Z,49.93
2018-02-25T01:34:07.918Z,49.80
2018-02-25T01:36:36.031Z,50.10
2018-02-25T01:39:04.156Z,50.12
2018-02-25T01:41:32.280Z,49.53
2018-02-25T01:44:00.408Z,49.91
2018-02-25T01:46:28.526Z,49.97
2018-02-25T01:48:56.660Z,49.68
2018-02-25T01:51:24.782Z,50.09
2018-02-25T01:53:52.883Z,49.33
2018-02-25T01:56:21.005Z,49.71
2018-02-25T01:58:49.122Z,50.08
2018-02-25T02:01:17.231Z,49.78
2018-02-25T02:03:45.361Z,50.15
2018-02-25T02:06:13.468Z,50.76
2018-02-25T02:08:41.609Z,50.62
2018-02-25T02:11:09.734Z,50.23
2018-02-25T02:13:37.828Z,50.18
2018-02-25T02:16:05.954Z,49.77
2018-02-25T02:18:34.073Z,50.64
2018-02-25T02:21:02.198Z,51.29
2018-02-25T02:23:30.310Z,50.57
2018-02-25T02:25:58.443Z,50.42
2018-02-25T02:28:26.561Z,50.88
2018-02-25T02:30:54.961Z,51.01
2018-02-25T02:33:23.082Z,50.80
2018-02-25T02:35:51.210Z,51.14
2018-02-25T02:38:19.332Z,51.22
2018-02-25T02:40:47.444Z,51.20
2018-02-25T02:43:16.041Z,50.94
2018-02-25T02:45:44.153Z,51.32
2018-02-25T02:48:12.278Z,52.04
2018-02-25T02:50:40.421Z,51.69
2018-02-25T02:53:08.520Z,51.71
2018-02-25T02:55:36.628Z,51.82
2018-02-25T02:58:04.738Z,51.34
2018-02-25T03:00:32.881Z,52.04
2018-02-25T03:03:00.999Z,51.94
2018-02-25T03:05:29.114Z,52.04
2018-02-25T03:07:57.211Z,51.35
2018-02-25T03:10:25.328Z,51.45
2018-02-25T03:12:53.452Z,51.69
2018-02-25T03:15:21.572Z,51.79
2018-02-25T03:17:49.706Z,51.62
2018-02-25T03:20:17.815Z,51.98
2018-02-25T03:22:45.940Z,51.82
2018-02-25T03:25:14.051Z,52.71
2018-02-25T03:27:42.161Z,52.48
2018-02-25T03:30:10.269Z,52.22
2018-02-25T03:32:38.377Z,51.88
2018-02-25T03:35:06.502Z,52.26
2018-02-25T03:37:34.626Z,52.56
2018-02-25T03:40:02.733Z,52.43
2018-02-25T03:42:30.858Z,52.15
2018-02-25T03:44:58.966Z,52.61
2018-02-25T03:47:27.077Z,53.00
2018-02-25T03:49:55.204Z,52.71
2018-02-25T03:52:23.462Z,52.01
2018-02-25T03:54:51.582Z,53.11
2018-02-25T03:57:19.710Z,52.93
2018-02-25T03:59:47.836Z,52.70
2018-02-25T04:02:16.127Z,52.65
2018-02-25T04:04:44.238Z,52.81
2018-02-25T04:07:12.365Z,52.81
2018-02-25T04:09:40.484Z,52.76
2018-02-25T04:12:08.587Z,52.49
2018-02-25T04:14:36.734Z,52.60
2018-02-25T04:17:04.843Z,52.90
2018-02-25T04:19:32.968Z,52.74
2018-02-25T04:22:01.085Z,52.99
2018-02-25T04:24:29.212Z,52.76
2018-02-25T04:26:57.339Z,52.83
2018-02-25T04:29:25.756Z,52.81
2018-02-25T04:31:54.496Z,52.75
2018-02-25T04:34:22.644Z,52.94
2018-02-25T04:36:50.774Z,52.54
2018-02-25T04:39:18.877Z,53.62
2018-02-25T04:41:46.999Z,52.96
2018-02-25T04:44:15.117Z,52.58
2018-02-25T04:46:43.232Z,52.58
2018-02-25T04:49:11.352Z,52.61
2018-02-25T04:51:39.475Z,52.67
2018-02-25T04:54:07.593Z,52.63
2018-02-25T04:56:35.710Z,52.71
2018-02-25T04:59:03.840Z,52.32
2018-02-25T05:01:31.958Z,52.76
2018-02-25T05:04:00.070Z,52.46
2018-02-25T05:06:28.176Z,52.66
2018-02-25T05:08:56.290Z,52.37
2018-02-25T05:11:24.427Z,52.41
2018-02-25T05:13:52.545Z,52.27
2018-02-25T05:16:20.664Z,52.11
2018-02-25T05:18:48.786Z,52.10
2018-02-25T05:21:16.922Z,52.00
2018-02-25T05:23:45.029Z,51.63
2018-02-25T05:26:13.165Z,51.98
2018-02-25T05:28:41.267Z,52.50
2018-02-25T05:31:09.375Z,51.85
2018-02-25T05:33:37.484Z,52.65
2018-02-25T05:36:05.584Z,53.09
2018-02-25T05:38:33.719Z,53.47
2018-02-25T05:41:01.856Z,52.84
2018-02-25T05:43:29.962Z,52.73
2018-02-25T05:45:58.089Z,52.55
2018-02-25T05:48:26.220Z,52.40
2018-02-25T05:50:54.618Z,52.23
2018-02-25T05:53:22.729Z,52.60
2018-02-25T05:55:50.851Z,52.53
2018-02-25T05:58:19.110Z,52.75
2018-02-25T06:00:47.241Z,52.17
2018-02-25T06:03:15.352Z,53.20
2018-02-25T06:05:43.469Z,52.36
2018-02-25T06:08:11.595Z,52.43
2018-02-25T06:10:39.719Z,52.68
2018-02-25T06:13:07.842Z,52.63
2018-02-25T06:15:35.974Z,52.16
2018-02-25T06:18:04.090Z,53.18
2018-02-25T06:20:32.222Z,53.05
2018-02-25T06:23:00.331Z,52.51
2018-02-25T06:25:28.473Z,53.46
2018-02-25T06:27:56.588Z,52.09
2018-02-25T06:30:24.742Z,52.74
2018-02-25T06:32:52.846Z,52.17
2018-02-25T06:35:20.973Z,52.08
2018-02-25T06:37:49.101Z,52.08
2018-02-25T06:40:17.221Z,52.51
2018-02-25T06:42:45.364Z,52.91
2018-02-25T06:45:13.502Z,53.81
2018-02-25T06:47:41.622Z,53.29
2018-02-25T06:50:09.753Z,53.09
2018-02-25T06:52:37.900Z,53.73
2018-02-25T06:55:06.051Z,53.33
2018-02-25T06:57:34.187Z,53.14
2018-02-25T07:00:02.285Z,53.34
2018-02-25T07:02:30.403Z,53.38
2018-02-25T07:04:58.529Z,53.84
2018-02-25T07:07:26.675Z,53.64
2018-02-25T07:09:54.785Z,53.89
2018-02-25T07:12:23.107Z,53.28
2018-02-25T07:14:51.217Z,52.70
2018-02-25T07:17:19.389Z,52.82
2018-02-25T07:19:47.518Z,52.27
2018-02-25T07:22:15.659Z,51.67
2018-02-25T07:24:43.798Z,51.26
2018-02-25T07:27:11.921Z,51.85
2018-02-25T07:29:40.032Z,50.93
2018-02-25T07:32:08.166Z,52.60
2018-02-25T07:34:36.271Z,51.95
2018-02-25T07:37:04.408Z,51.66
2018-02-25T07:39:32.592Z,50.76
2018-02-25T07:42:00.709Z,50.33
2018-02-25T07:44:28.848Z,48.95
2018-02-25T07:46:56.943Z,48.52
2018-02-25T07:49:25.069Z,48.22
2018-02-25T07:51:53.189Z,47.74
2018-02-25T07:54:21.288Z,47.14
2018-02-25T07:56:50.014Z,46.52
2018-02-25T07:59:18.116Z,45.36
2018-02-25T08:01:46.243Z,45.03
2018-02-25T08:04:17.552Z,44.54
2018-02-25T08:06:45.665Z,44.79
2018-02-25T08:09:13.771Z,44.33
2018-02-25T08:11:41.900Z,45.04
2018-02-25T08:14:10.005Z,45.41
2018-02-25T08:16:38.127Z,45.27
2018-02-25T08:19:06.236Z,45.30
2018-02-25T08:21:34.364Z,45.27
2018-02-25T08:24:02.487Z,45.46
2018-02-25T08:26:30.609Z,44.15
2018-02-25T08:28:58.716Z,43.11
2018-02-25T08:31:26.849Z,42.86
2018-02-25T08:33:54.939Z,44.80
2018-02-25T08:36:23.065Z,45.01
2018-02-25T08:38:51.164Z,43.94
2018-02-25T08:41:19.303Z,42.14
2018-02-25T08:43:47.416Z,41.56
2018-02-25T08:46:15.537Z,41.39
2018-02-25T08:48:43.652Z,41.90
2018-02-25T08:51:11.796Z,41.50
2018-02-25T08:53:39.912Z,40.65
2018-02-25T08:56:08.053Z,40.94
2018-02-25T08:58:36.171Z,41.19
2018-02-25T09:01:04.281Z,41.58
2018-02-25T09:03:32.397Z,41.18
2018-02-25T09:06:00.521Z,41.27
2018-02-25T09:08:28.656Z,40.93
2018-02-25T09:10:56.758Z,41.17
2018-02-25T09:13:28.186Z,40.70
2018-02-25T09:15:56.291Z,39.74
2018-02-25T09:18:24.408Z,39.16
2018-02-25T09:20:52.575Z,37.56
2018-02-25T09:23:20.973Z,38.93
2018-02-25T09:25:49.080Z,39.29
2018-02-25T09:28:17.194Z,39.70
2018-02-25T09:30:45.337Z,40.12
2018-02-25T09:33:13.464Z,38.94
2018-02-25T09:35:41.568Z,39.92
2018-02-25T09:38:09.706Z,39.34
2018-02-25T09:40:37.838Z,39.26
2018-02-25T09:43:05.944Z,39.28
2018-02-25T09:45:34.083Z,38.91
2018-02-25T09:48:02.194Z,38.51
2018-02-25T09:50:30.330Z,38.14
2018-02-25T09:52:58.454Z,37.50
2018-02-25T09:55:26.570Z,37.16
2018-02-25T09:57:54.696Z,35.89
2018-02-25T10:00:22.816Z,36.47
2018-02-25T10:02:50.918Z,36.67
2018-02-25T10:05:19.056Z,36.49
2018-02-25T10:07:47.168Z,37.62
2018-02-25T10:10:15.297Z,36.39
2018-02-25T10:12:43.415Z,37.83
2018-02-25T10:15:11.530Z,37.06
2018-02-25T10:17:39.661Z,36.82
2018-02-25T10:20:07.763Z,36.96
2018-02-25T10:22:35.892Z,36.10
2018-02-25T10:25:04.023Z,36.22
2018-02-25T10:27:32.138Z,36.08
2018-02-25T10:30:00.254Z,36.50
2018-02-25T10:32:28.380Z,35.73
2018-02-25T10:34:56.619Z,35.70
2018-02-25T10:37:24.741Z,35.51
2018-02-25T10:39:52.865Z,35.82
2018-02-25T10:42:21.002Z,35.12
2018-02-25T10:44:49.127Z,35.90
2018-02-25T10:47:17.231Z,35.73
2018-02-25T10:49:45.353Z,35.33
2018-02-25T10:52:13.460Z,35.22
2018-02-25T10:54:41.572Z,35.28
2018-02-25T10:57:09.676Z,34.51
2018-02-25T10:59:37.802Z,34.49
2018-02-25T11:02:05.908Z,34.56
2018-02-25T11:04:34.885Z,33.91
2018-02-25T11:07:03.025Z,35.14
2018-02-25T11:09:31.130Z,35.54
2018-02-25T11:11:59.254Z,35.06
2018-02-25T11:14:27.370Z,34.65
2018-02-25T11:16:55.620Z,34.28
2018-02-25T11:19:23.766Z,34.13
2018-02-25T11:21:51.833Z,34.77
2018-02-25T11:24:19.962Z,33.65
2018-02-25T11:26:48.070Z,33.88
2018-02-25T11:29:16.217Z,33.77
2018-02-25T11:31:44.371Z,33.21
2018-02-25T11:34:12.442Z,32.41
2018-02-25T11:36:40.605Z,33.36
2018-02-25T11:39:08.681Z,33.51
2018-02-25T11:41:36.804Z,33.70
2018-02-25T11:44:04.918Z,32.29
2018-02-25T11:46:33.037Z,32.50
2018-02-25T11:49:01.301Z,32.08
2018-02-25T11:51:29.440Z,32.76
2018-02-25T11:53:57.544Z,32.06
2018-02-25T11:56:25.671Z,31.36
2018-02-25T11:58:53.781Z,32.70
2018-02-25T12:01:21.883Z,32.57
2018-02-25T12:03:49.994Z,31.74
2018-02-25T12:06:18.111Z,32.41
2018-02-25T12:08:46.248Z,31.73
2018-02-25T12:11:14.376Z,32.39
2018-02-25T12:13:42.503Z,32.82
2018-02-25T12:16:10.622Z,32.63
2018-02-25T12:18:38.740Z,31.84
2018-02-25T12:21:06.835Z,31.40
2018-02-25T12:23:34.983Z,31.62
2018-02-25T12:26:03.079Z,32.03
2018-02-25T12:28:31.221Z,31.73
2018-02-25T12:30:59.350Z,31.53
2018-02-25T12:33:27.465Z,30.25
2018-02-25T12:35:55.595Z,30.80
2018-02-25T12:38:23.709Z,28.74
2018-02-25T12:40:51.835Z,32.18
2018-02-25T12:43:20.295Z,30.20
2018-02-25T12:45:48.400Z,29.96
2018-02-25T12:48:16.505Z,29.52
2018-02-25T12:50:44.613Z,29.23
2018-02-25T12:53:12.744Z,29.29
2018-02-25T12:55:40.868Z,30.31
2018-02-25T12:58:09.033Z,28.61
2018-02-25T13:00:37.113Z,29.51
2018-02-25T13:03:05.235Z,29.49
2018-02-25T13:05:33.357Z,29.11
2018-02-25T13:08:01.477Z,28.49
2018-02-25T13:10:29.597Z,28.04
2018-02-25T13:12:57.794Z,28.78
2018-02-25T13:15:26.066Z,30.17
2018-02-25T13:17:54.188Z,30.44
2018-02-25T13:20:22.289Z,28.30
2018-02-25T13:22:50.391Z,27.48
2018-02-25T13:25:18.538Z,27.75
2018-02-25T13:27:46.658Z,27.60
2018-02-25T13:30:14.756Z,28.26
2018-02-25T13:32:42.852Z,28.47
2018-02-25T13:35:10.981Z,29.06
2018-02-25T13:37:39.244Z,28.61
2018-02-25T13:40:07.371Z,29.70
2018-02-25T13:42:35.493Z,29.78
2018-02-25T13:45:03.607Z,29.79
2018-02-25T13:47:31.711Z,28.81
2018-02-25T13:49:59.828Z,28.82
2018-02-25T13:52:27.953Z,29.53
2018-02-25T13:54:56.069Z,29.27
2018-02-25T13:57:24.194Z,29.24
2018-02-25T13:59:52.315Z,30.62
2018-02-25T14:02:20.463Z,28.79
2018-02-25T14:04:48.557Z,28.54
2018-02-25T14:07:16.696Z,30.83
2018-02-25T14:09:44.915Z,30.00
2018-02-25T14:12:13.040Z,29.38
2018-02-25T14:14:41.153Z,29.71
2018-02-25T14:17:09.272Z,30.03
2018-02-25T14:19:37.423Z,30.35
2018-02-25T14:22:05.511Z,31.09
2018-02-25T14:24:33.646Z,30.59
2018-02-25T14:27:01.740Z,29.89
2018-02-25T14:29:29.858Z,29.89
2018-02-25T14:31:57.967Z,30.74
2018-02-25T14:34:26.100Z,31.05
2018-02-25T14:36:54.235Z,30.98
2018-02-25T14:39:22.364Z,31.47
2018-02-25T14:41:50.491Z,31.49
2018-02-25T14:44:18.626Z,31.88
2018-02-25T14:46:46.740Z,32.11
2018-02-25T14:49:14.857Z,32.17
2018-02-25T14:51:42.975Z,31.64
2018-02-25T14:54:11.098Z,31.89
2018-02-25T14:56:39.202Z,32.12
2018-02-25T14:59:07.312Z,32.02
2018-02-25T15:01:35.420Z,31.86
2018-02-25T15:04:03.541Z,30.61
2018-02-25T15:06:31.665Z,30.23
2018-02-25T15:08:59.789Z,32.43
2018-02-25T15:11:27.893Z,32.68
2018-02-25T15:13:56.029Z,33.87
2018-02-25T15:16:24.164Z,34.49
2018-02-25T15:18:52.290Z,34.48
2018-02-25T15:21:20.401Z,34.85
2018-02-25T15:23:48.540Z,34.66
2018-02-25T15:26:16.640Z,34.20
2018-02-25T15:28:44.760Z,34.76
2018-02-25T15:31:12.876Z,35.26
2018-02-25T15:33:41.007Z,45.41
2018-02-25T15:36:09.115Z,35.32
2018-02-25T15:38:37.226Z,35.53
2018-02-25T15:41:05.343Z,36.19
2018-02-25T15:43:33.469Z,36.34
2018-02-25T15:46:01.643Z,37.57
2018-02-25T15:48:29.710Z,37.64
2018-02-25T15:50:57.813Z,37.15
2018-02-25T15:53:25.953Z,37.43
2018-02-25T15:55:54.067Z,37.17
2018-02-25T15:58:22.182Z,37.86
2018-02-25T16:00:50.409Z,37.85
2018-02-25T16:03:18.539Z,37.51
2018-02-25T16:05:53.488Z,37.83
2018-02-25T16:08:21.617Z,38.34
2018-02-25T16:10:49.757Z,38.39
2018-02-25T16:13:17.886Z,37.97
2018-02-25T16:15:45.991Z,39.57
2018-02-25T16:18:14.102Z,38.72
2018-02-25T16:20:42.227Z,39.16
2018-02-25T16:23:10.318Z,39.56
2018-02-25T16:25:38.435Z,39.76
2018-02-25T16:28:06.532Z,39.83
2018-02-25T16:30:34.638Z,39.70
2018-02-25T16:33:02.754Z,39.40
2018-02-25T16:35:31.006Z,39.72
2018-02-25T16:37:59.113Z,39.92
2018-02-25T16:40:27.278Z,39.37
2018-02-25T16:42:55.568Z,39.30
2018-02-25T16:45:23.746Z,39.09
2018-02-25T16:47:51.869Z,39.20
2018-02-25T16:50:20.014Z,39.27
2018-02-25T16:52:48.126Z,39.66
2018-02-25T16:55:16.242Z,39.64
2018-02-25T16:57:44.413Z,40.08
2018-02-25T17:00:12.555Z,39.99
2018-02-25T17:02:44.809Z,39.72
2018-02-25T17:05:12.901Z,39.87
2018-02-25T17:07:41.005Z,39.60
2018-02-25T17:10:09.215Z,39.30
2018-02-25T17:12:37.331Z,39.56
2018-02-25T17:15:05.500Z,40.38
2018-02-25T17:17:33.678Z,40.67
2018-02-25T17:20:01.935Z,40.35
2018-02-25T17:22:30.095Z,40.49
2018-02-25T17:24:58.245Z,40.64
2018-02-25T17:27:26.470Z,40.48
2018-02-25T17:29:54.617Z,40.73
2018-02-25T17:32:22.773Z,41.38
2018-02-25T17:34:50.861Z,41.20
2018-02-25T17:37:18.977Z,41.49
2018-02-25T17:39:47.074Z,41.18
2018-02-25T17:42:15.385Z,41.32
2018-02-25T17:44:43.492Z,41.43
2018-02-25T17:47:11.618Z,41.75
2018-02-25T17:49:39.811Z,41.76
2018-02-25T17:52:08.093Z,41.98
2018-02-25T17:54:36.309Z,41.56
2018-02-25T17:57:04.478Z,41.82
2018-02-25T17:59:32.685Z,41.73
2018-02-25T18:02:00.863Z,41.76
2018-02-25T18:04:29.089Z,42.20
2018-02-25T18:06:57.240Z,42.29
2018-02-25T18:09:25.494Z,42.32
2018-02-25T18:11:53.583Z,42.06
2018-02-25T18:14:21.743Z,42.95
2018-02-25T18:16:49.923Z,42.89
2018-02-25T18:19:18.152Z,42.91
2018-02-25T18:21:49.739Z,44.47
2018-02-25T18:24:17.875Z,45.25
2018-02-25T18:26:46.002Z,46.36
2018-02-25T18:29:14.233Z,47.18
2018-02-25T18:31:42.675Z,47.54
2018-02-25T18:34:10.908Z,47.83
2018-02-25T18:36:39.694Z,48.36
2018-02-25T18:39:07.939Z,48.73
2018-02-25T18:41:36.208Z,48.40
2018-02-25T18:44:04.345Z,48.23
2018-02-25T18:46:32.723Z,48.50
2018-02-25T18:49:00.842Z,49.78
2018-02-25T18:51:28.956Z,49.95
2018-02-25T18:53:57.146Z,51.21
2018-02-25T18:56:25.270Z,51.35
2018-02-25T18:58:53.390Z,51.08
2018-02-25T19:01:21.517Z,50.68
2018-02-25T19:03:49.633Z,50.61
2018-02-25T19:06:17.761Z,50.73
2018-02-25T19:08:45.890Z,50.68
2018-02-25T19:11:14.015Z,51.56
2018-02-25T19:13:42.128Z,50.87
2018-02-25T19:16:10.251Z,51.14
2018-02-25T19:18:38.368Z,51.14
2018-02-25T19:21:06.502Z,50.23
2018-02-25T19:23:34.616Z,49.80
2018-02-25T19:26:02.713Z,50.06
2018-02-25T19:28:30.842Z,50.00
2018-02-25T19:30:58.957Z,49.62
2018-02-25T19:33:27.088Z,49.69
2018-02-25T19:36:00.712Z,49.39
2018-02-25T19:38:34.355Z,49.04
2018-02-25T19:41:08.893Z,48.97
2018-02-25T19:43:36.999Z,49.30
2018-02-25T19:46:05.122Z,49.00
2018-02-25T19:48:33.258Z,49.23
2018-02-25T19:51:01.356Z,49.38
2018-02-25T19:53:29.519Z,49.40
2018-02-25T19:55:57.619Z,49.43
2018-02-25T19:58:25.768Z,49.04
2018-02-25T20:00:54.284Z,49.27
2018-02-25T20:03:22.419Z,49.08
2018-02-25T20:05:50.540Z,48.94
2018-02-25T20:08:18.662Z,49.30
2018-02-25T20:10:46.797Z,48.89
2018-02-25T20:13:14.920Z,49.44
2018-02-25T20:15:43.037Z,49.27
2018-02-25T20:18:11.153Z,49.38
2018-02-25T20:20:39.321Z,48.87
2018-02-25T20:23:07.426Z,49.38
2018-02-25T20:25:35.647Z,49.65
2018-02-25T20:28:03.763Z,49.45
2018-02-25T20:30:31.891Z,50.03
2018-02-25T20:33:00.005Z,49.99
2018-02-25T20:35:28.126Z,50.28
2018-02-25T20:37:56.254Z,50.56
2018-02-25T20:40:24.364Z,50.69
2018-02-25T20:42:52.763Z,50.91
2018-02-25T20:45:20.865Z,50.82
2018-02-25T20:47:49.015Z,50.69
2018-02-25T20:50:17.115Z,51.29
2018-02-25T20:52:45.263Z,51.53
2018-02-25T20:55:13.379Z,52.53
2018-02-25T20:57:41.486Z,52.46
2018-02-25T21:00:09.626Z,52.56
2018-02-25T21:02:37.719Z,52.19
2018-02-25T21:05:05.845Z,52.66
2018-02-25T21:07:33.970Z,52.93
2018-02-25T21:10:02.079Z,53.19
2018-02-25T21:12:30.215Z,53.30
2018-02-25T21:14:58.328Z,53.04
2018-02-25T21:17:26.464Z,53.39
2018-02-25T21:19:54.574Z,52.83
2018-02-25T21:22:22.686Z,52.94
2018-02-25T21:24:50.809Z,54.39
2018-02-25T21:27:18.914Z,54.42
2018-02-25T21:29:47.054Z,53.74
2018-02-25T21:32:15.166Z,53.90
2018-02-25T21:34:43.286Z,54.87
2018-02-25T21:37:11.425Z,54.72
2018-02-25T21:39:43.283Z,55.22
2018-02-25T21:42:11.408Z,54.98
2018-02-25T21:44:39.535Z,55.43
2018-02-25T21:47:07.636Z,55.73
2018-02-25T21:49:35.761Z,56.65
2018-02-25T21:52:03.872Z,56.13
2018-02-25T21:54:37.512Z,56.79
2018-02-25T21:57:11.154Z,56.89
2018-02-25T21:59:48.262Z,57.58
2018-02-25T22:02:21.890Z,57.27
2018-02-25T22:04:50.024Z,58.69
2018-02-25T22:07:18.124Z,58.43
2018-02-25T22:09:46.258Z,58.41
2018-02-25T22:12:14.399Z,58.43
2018-02-25T22:14:42.501Z,57.79
2018-02-25T22:17:10.681Z,57.60
2018-02-25T22:19:38.812Z,58.79
2018-02-25T22:22:06.931Z,59.67
2018-02-25T22:24:35.387Z,59.75
2018-02-25T22:27:03.487Z,59.73
2018-02-25T22:29:31.890Z,59.10
2018-02-25T22:32:00.162Z,58.86
2018-02-25T22:34:28.321Z,60.25
2018-02-25T22:36:56.448Z,61.08
2018-02-25T22:39:24.581Z,60.77
2018-02-25T22:41:52.717Z,60.36
2018-02-25T22:44:20.913Z,60.93
2018-02-25T22:46:49.018Z,62.05
2018-02-25T22:49:17.281Z,61.71
2018-02-25T22:51:45.493Z,61.76
2018-02-25T22:54:13.624Z,62.26
2018-02-25T22:56:41.865Z,62.08
2018-02-25T22:59:09.973Z,62.50
2018-02-25T23:01:38.385Z,62.60
2018-02-25T23:04:06.609Z,62.83
2018-02-25T23:06:35.194Z,62.84
2018-02-25T23:09:03.368Z,61.66
2018-02-25T23:11:31.655Z,63.06
2018-02-25T23:14:00.595Z,62.91
2018-02-25T23:16:33.775Z,62.39
2018-02-25T23:19:04.316Z,62.26
2018-02-25T23:21:33.161Z,62.67
2018-02-25T23:24:02.702Z,62.74
2018-02-25T23:26:32.631Z,62.50
2018-02-25T23:29:02.024Z,62.95
2018-02-25T23:31:32.253Z,62.71
2018-02-25T23:34:01.645Z,63.77
2018-02-25T23:36:30.404Z,63.66
2018-02-25T23:39:00.505Z,63.33
2018-02-25T23:41:29.869Z,63.77
2018-02-25T23:43:58.820Z,64.27
2018-02-25T23:46:28.653Z,64.68
2018-02-25T23:48:58.355Z,65.36
2018-02-25T23:51:27.158Z,64.34
2018-02-25T23:53:56.553Z,64.86
2018-02-25T23:56:26.221Z,64.31
2018-02-25T23:58:57.602Z,64.89
